Terminal Aerodrome Forecast
Issued by NWS

Home | Current Version | Previous Version | Text Only | Print | Product List | Glossary On
Versions: 1 2 3 4 5 6 7 8 9 10 11 12 13 14 15
000
FTUS46 KPDT 162300
TAFRDM
TAF
KRDM 162337Z 1700/1724 31009G14KT P6SM SCT180
     FM170700 14005KT P6SM BKN180
     FM171200 14004KT P6SM SCT120 OVC180
     FM171900 32010KT P6SM BKN150=

USA.gov is the U.S. government's official web portal to all federal, state and local government web resources and services.